sensor_id;sensor_type;location;lat;lon;timestamp;pressure;altitude;pressure_sealevel;temperature;humidity
14689;BME280;7432;48.728;9.154;2024-01-30T00:00:23;142500.34;;;2.59;91.84
14689;BME280;7432;48.728;9.154;2024-01-30T00:02:51;142500.34;;;2.59;92.17
14689;BME280;7432;48.728;9.154;2024-01-30T00:05:17;142496.72;;;2.57;91.31
14689;BME280;7432;48.728;9.154;2024-01-30T00:07:44;142495.56;;;2.57;92.50
14689;BME280;7432;48.728;9.154;2024-01-30T00:10:09;142496.72;;;2.57;91.49
14689;BME280;7432;48.728;9.154;2024-01-30T00:12:36;142491.94;;;2.55;92.21
14689;BME280;7432;48.728;9.154;2024-01-30T00:15:03;142491.94;;;2.55;92.25
14689;BME280;7432;48.728;9.154;2024-01-30T00:17:30;142484.72;;;2.52;91.77
14689;BME280;7432;48.728;9.154;2024-01-30T00:19:57;142496.72;;;2.57;92.64
14689;BME280;7432;48.728;9.154;2024-01-30T00:22:24;142502.72;;;2.60;91.76
14689;BME280;7432;48.728;9.154;2024-01-30T00:24:50;142513.56;;;2.64;91.27
14689;BME280;7432;48.728;9.154;2024-01-30T00:27:17;142505.16;;;2.61;91.48
14689;BME280;7432;48.728;9.154;2024-01-30T00:29:43;142520.78;;;2.67;91.86
14689;BME280;7432;48.728;9.154;2024-01-30T00:32:09;142525.59;;;2.69;91.66
14689;BME280;7432;48.728;9.154;2024-01-30T00:34:36;142534.03;;;2.73;91.85
14689;BME280;7432;48.728;9.154;2024-01-30T00:37:03;142537.59;;;2.74;92.13
14689;BME280;7432;48.728;9.154;2024-01-30T00:39:30;142542.41;;;2.76;90.86
14689;BME280;7432;48.728;9.154;2024-01-30T00:41:56;142548.41;;;2.79;91.89
14689;BME280;7432;48.728;9.154;2024-01-30T00:44:23;142547.25;;;2.78;91.14
14689;BME280;7432;48.728;9.154;2024-01-30T00:46:49;142546.03;;;2.78;91.55
14689;BME280;7432;48.728;9.154;2024-01-30T00:49:15;142554.47;;;2.81;91.44
14689;BME280;7432;48.728;9.154;2024-01-30T00:51:42;142554.47;;;2.81;91.01
14689;BME280;7432;48.728;9.154;2024-01-30T00:54:10;142560.47;;;2.84;90.92
14689;BME280;7432;48.728;9.154;2024-01-30T00:56:36;142554.47;;;2.81;91.46
14689;BME280;7432;48.728;9.154;2024-01-30T00:59:02;142547.25;;;2.78;92.08
14689;BME280;7432;48.728;9.154;2024-01-30T01:01:29;142544.81;;;2.77;90.75
14689;BME280;7432;48.728;9.154;2024-01-30T01:03:55;142540.03;;;2.75;91.83
14689;BME280;7432;48.728;9.154;2024-01-30T01:06:21;142536.41;;;2.74;91.64
14689;BME280;7432;48.728;9.154;2024-01-30T01:08:48;142544.81;;;2.77;92.35
14689;BME280;7432;48.728;9.154;2024-01-30T01:11:15;142546.03;;;2.78;91.93
14689;BME280;7432;48.728;9.154;2024-01-30T01:13:42;142544.81;;;2.77;92.13
14689;BME280;7432;48.728;9.154;2024-01-30T01:16:08;142550.81;;;2.80;91.71
14689;BME280;7432;48.728;9.154;2024-01-30T01:18:34;142548.41;;;2.79;91.51
14689;BME280;7432;48.728;9.154;2024-01-30T01:21:01;142541.25;;;2.76;91.57
14689;BME280;7432;48.728;9.154;2024-01-30T01:23:27;142537.59;;;2.74;91.45
14689;BME280;7432;48.728;9.154;2024-01-30T01:25:54;142541.25;;;2.76;92.06
14689;BME280;7432;48.728;9.154;2024-01-30T01:28:21;142542.41;;;2.76;91.70
14689;BME280;7432;48.728;9.154;2024-01-30T01:30:48;142536.41;;;2.74;91.49
14689;BME280;7432;48.728;9.154;2024-01-30T01:33:14;142536.41;;;2.74;92.46
14689;BME280;7432;48.728;9.154;2024-01-30T01:35:41;142532.81;;;2.72;91.45
14689;BME280;7432;48.728;9.154;2024-01-30T01:38:07;142536.41;;;2.74;91.27
14689;BME280;7432;48.728;9.154;2024-01-30T01:40:33;142514.78;;;2.65;91.54
14689;BME280;7432;48.728;9.154;2024-01-30T01:43:03;142525.59;;;2.69;91.26
14689;BME280;7432;48.728;9.154;2024-01-30T01:45:30;142518.38;;;2.66;91.53
14689;BME280;7432;48.728;9.154;2024-01-30T01:47:57;142513.56;;;2.64;92.09
14689;BME280;7432;48.728;9.154;2024-01-30T01:50:24;142514.78;;;2.65;91.07
14689;BME280;7432;48.728;9.154;2024-01-30T01:52:52;142513.56;;;2.64;91.30
14689;BME280;7432;48.728;9.154;2024-01-30T01:55:20;142502.72;;;2.60;92.34
14689;BME280;7432;48.728;9.154;2024-01-30T01:57:49;142494.34;;;2.56;91.97
14689;BME280;7432;48.728;9.154;2024-01-30T02:00:16;142489.50;;;2.54;91.26
14689;BME280;7432;48.728;9.154;2024-01-30T02:02:46;142489.50;;;2.54;91.79
14689;BME280;7432;48.728;9.154;2024-01-30T02:05:12;142491.94;;;2.55;91.15
14689;BME280;7432;48.728;9.154;2024-01-30T02:07:39;142475.13;;;2.48;91.62
14689;BME280;7432;48.728;9.154;2024-01-30T02:10:07;142455.91;;;2.40;91.67
14689;BME280;7432;48.728;9.154;2024-01-30T02:12:34;142469.13;;;2.46;91.53
14689;BME280;7432;48.728;9.154;2024-01-30T02:15:00;142466.69;;;2.45;91.31
14689;BME280;7432;48.728;9.154;2024-01-30T02:17:26;142458.28;;;2.41;91.80
14689;BME280;7432;48.728;9.154;2024-01-30T02:19:54;142447.47;;;2.36;91.94
14689;BME280;7432;48.728;9.154;2024-01-30T02:22:22;142446.25;;;2.36;92.95
14689;BME280;7432;48.728;9.154;2024-01-30T02:24:48;142442.69;;;2.34;93.14
14689;BME280;7432;48.728;9.154;2024-01-30T02:27:15;142440.25;;;2.33;92.83
14689;BME280;7432;48.728;9.154;2024-01-30T02:29:41;142430.66;;;2.29;91.80
14689;BME280;7432;48.728;9.154;2024-01-30T02:32:07;142415.03;;;2.23;93.05
14689;BME280;7432;48.728;9.154;2024-01-30T02:34:34;142412.59;;;2.22;93.30
14689;BME280;7432;48.728;9.154;2024-01-30T02:37:00;142413.81;;;2.22;92.09
14689;BME280;7432;48.728;9.154;2024-01-30T02:39:28;142410.22;;;2.21;92.72
14689;BME280;7432;48.728;9.154;2024-01-30T02:41:54;142413.81;;;2.22;92.42
14689;BME280;7432;48.728;9.154;2024-01-30T02:44:21;142407.81;;;2.20;92.98
14689;BME280;7432;48.728;9.154;2024-01-30T02:46:47;142397.00;;;2.15;92.79
14689;BME280;7432;48.728;9.154;2024-01-30T02:49:13;142388.59;;;2.12;93.53
14689;BME280;7432;48.728;9.154;2024-01-30T02:51:39;142382.59;;;2.09;92.84
14689;BME280;7432;48.728;9.154;2024-01-30T02:54:06;142363.38;;;2.01;92.55
14689;BME280;7432;48.728;9.154;2024-01-30T02:56:33;142354.94;;;1.98;93.70
14689;BME280;7432;48.728;9.154;2024-01-30T02:59:00;142357.38;;;1.99;93.57
14689;BME280;7432;48.728;9.154;2024-01-30T03:01:26;142354.94;;;1.98;94.26
14689;BME280;7432;48.728;9.154;2024-01-30T03:03:52;142342.94;;;1.93;93.67
14689;BME280;7432;48.728;9.154;2024-01-30T03:06:19;142346.53;;;1.94;93.84
14689;BME280;7432;48.728;9.154;2024-01-30T03:08:45;142342.94;;;1.93;93.32
14689;BME280;7432;48.728;9.154;2024-01-30T03:11:11;142329.72;;;1.87;94.22
14689;BME280;7432;48.728;9.154;2024-01-30T03:13:39;142327.31;;;1.86;93.58
14689;BME280;7432;48.728;9.154;2024-01-30T03:16:06;142328.50;;;1.87;93.72
14689;BME280;7432;48.728;9.154;2024-01-30T03:18:32;142315.31;;;1.81;94.22
14689;BME280;7432;48.728;9.154;2024-01-30T03:20:59;142317.72;;;1.82;93.83
14689;BME280;7432;48.728;9.154;2024-01-30T03:23:25;142306.94;;;1.77;93.83
14689;BME280;7432;48.728;9.154;2024-01-30T03:25:51;142299.72;;;1.74;93.17
14689;BME280;7432;48.728;9.154;2024-01-30T03:28:18;142286.50;;;1.69;94.38
14689;BME280;7432;48.728;9.154;2024-01-30T03:30:45;142260.06;;;1.58;94.09
14689;BME280;7432;48.728;9.154;2024-01-30T03:33:12;142264.88;;;1.60;94.50
14689;BME280;7432;48.728;9.154;2024-01-30T03:35:38;142264.88;;;1.60;93.98
14689;BME280;7432;48.728;9.154;2024-01-30T03:38:04;142268.44;;;1.61;94.29
14689;BME280;7432;48.728;9.154;2024-01-30T03:40:31;142263.66;;;1.59;93.99
14689;BME280;7432;48.728;9.154;2024-01-30T03:42:57;142275.66;;;1.64;94.05
14689;BME280;7432;48.728;9.154;2024-01-30T03:45:24;142255.25;;;1.56;93.88
14689;BME280;7432;48.728;9.154;2024-01-30T03:47:51;142237.25;;;1.48;93.88
14689;BME280;7432;48.728;9.154;2024-01-30T03:50:18;142232.44;;;1.46;94.12
14689;BME280;7432;48.728;9.154;2024-01-30T03:52:44;142215.66;;;1.39;94.23
14689;BME280;7432;48.728;9.154;2024-01-30T03:55:10;142224.03;;;1.43;94.65
14689;BME280;7432;48.728;9.154;2024-01-30T03:57:37;142209.59;;;1.37;94.67
14689;BME280;7432;48.728;9.154;2024-01-30T04:00:04;142196.44;;;1.31;95.24
14689;BME280;7432;48.728;9.154;2024-01-30T04:02:31;142212.03;;;1.38;95.00
14689;BME280;7432;48.728;9.154;2024-01-30T04:04:58;142203.59;;;1.34;94.63
14689;BME280;7432;48.728;9.154;2024-01-30T04:07:25;142209.59;;;1.37;94.54
14689;BME280;7432;48.728;9.154;2024-01-30T04:09:51;142210.81;;;1.37;95.52
14689;BME280;7432;48.728;9.154;2024-01-30T04:12:18;142222.81;;;1.42;95.11
14689;BME280;7432;48.728;9.154;2024-01-30T04:14:44;142209.59;;;1.37;95.20
14689;BME280;7432;48.728;9.154;2024-01-30T04:17:10;142202.44;;;1.34;94.45
14689;BME280;7432;48.728;9.154;2024-01-30T04:19:37;142177.19;;;1.23;95.73
14689;BME280;7432;48.728;9.154;2024-01-30T04:22:04;142172.41;;;1.21;95.22
14689;BME280;7432;48.728;9.154;2024-01-30T04:24:31;142188.03;;;1.28;94.60
14689;BME280;7432;48.728;9.154;2024-01-30T04:26:57;142171.19;;;1.20;94.50
14689;BME280;7432;48.728;9.154;2024-01-30T04:29:23;142159.19;;;1.15;96.09
14689;BME280;7432;48.728;9.154;2024-01-30T04:31:50;142166.41;;;1.18;95.18
14689;BME280;7432;48.728;9.154;2024-01-30T04:34:16;142172.41;;;1.21;94.99
14689;BME280;7432;48.728;9.154;2024-01-30T04:36:44;142152.00;;;1.12;96.18
14689;BME280;7432;48.728;9.154;2024-01-30T04:39:12;142146.00;;;1.10;95.84
14689;BME280;7432;48.728;9.154;2024-01-30T04:41:38;142150.81;;;1.12;95.54
14689;BME280;7432;48.728;9.154;2024-01-30T04:44:05;142148.41;;;1.11;96.53
14689;BME280;7432;48.728;9.154;2024-01-30T04:46:32;142098.00;;;0.90;96.18
14689;BME280;7432;48.728;9.154;2024-01-30T04:48:59;142154.41;;;1.13;95.93
14689;BME280;7432;48.728;9.154;2024-01-30T04:51:26;142159.19;;;1.15;95.58
14689;BME280;7432;48.728;9.154;2024-01-30T04:53:52;142172.41;;;1.21;95.90
14689;BME280;7432;48.728;9.154;2024-01-30T04:56:20;142159.19;;;1.15;95.26
14689;BME280;7432;48.728;9.154;2024-01-30T04:58:46;142132.78;;;1.04;95.43
14689;BME280;7432;48.728;9.154;2024-01-30T05:01:14;142126.78;;;1.02;96.55
14689;BME280;7432;48.728;9.154;2024-01-30T05:03:41;142143.63;;;1.09;95.72
14689;BME280;7432;48.728;9.154;2024-01-30T05:06:07;142142.41;;;1.08;95.44
14689;BME280;7432;48.728;9.154;2024-01-30T05:08:34;142141.22;;;1.08;96.61
14689;BME280;7432;48.728;9.154;2024-01-30T05:11:01;142149.63;;;1.11;96.10
14689;BME280;7432;48.728;9.154;2024-01-30T05:13:30;142138.78;;;1.07;96.46
14689;BME280;7432;48.728;9.154;2024-01-30T05:15:56;142126.78;;;1.02;96.15
14689;BME280;7432;48.728;9.154;2024-01-30T05:18:22;142104.00;;;0.92;96.64
14689;BME280;7432;48.728;9.154;2024-01-30T05:20:50;142095.59;;;0.89;96.27
14689;BME280;7432;48.728;9.154;2024-01-30T05:23:16;142100.38;;;0.91;96.75
14689;BME280;7432;48.728;9.154;2024-01-30T05:25:43;142095.59;;;0.89;97.64
14689;BME280;7432;48.728;9.154;2024-01-30T05:28:09;142092.00;;;0.87;96.81
14689;BME280;7432;48.728;9.154;2024-01-30T05:30:37;142099.19;;;0.90;96.56
14689;BME280;7432;48.728;9.154;2024-01-30T05:33:03;142089.59;;;0.86;96.71
14689;BME280;7432;48.728;9.154;2024-01-30T05:35:30;142079.97;;;0.82;96.66
14689;BME280;7432;48.728;9.154;2024-01-30T05:37:56;142077.59;;;0.81;97.47
14689;BME280;7432;48.728;9.154;2024-01-30T05:40:22;142075.19;;;0.80;97.60
14689;BME280;7432;48.728;9.154;2024-01-30T05:42:49;142078.81;;;0.82;97.24
14689;BME280;7432;48.728;9.154;2024-01-30T05:45:15;142069.19;;;0.78;97.45
14689;BME280;7432;48.728;9.154;2024-01-30T05:47:43;142078.81;;;0.82;97.07
14689;BME280;7432;48.728;9.154;2024-01-30T05:50:09;142087.19;;;0.85;97.89
14689;BME280;7432;48.728;9.154;2024-01-30T05:52:36;142077.59;;;0.81;97.07
14689;BME280;7432;48.728;9.154;2024-01-30T05:55:03;142084.81;;;0.84;98.18
14689;BME280;7432;48.728;9.154;2024-01-30T05:57:30;142085.97;;;0.85;98.02
14689;BME280;7432;48.728;9.154;2024-01-30T05:59:57;142089.59;;;0.86;98.59
14689;BME280;7432;48.728;9.154;2024-01-30T06:02:23;142087.19;;;0.85;97.90
14689;BME280;7432;48.728;9.154;2024-01-30T06:04:51;142081.19;;;0.83;97.72
14689;BME280;7432;48.728;9.154;2024-01-30T06:07:17;142083.59;;;0.84;98.37
14689;BME280;7432;48.728;9.154;2024-01-30T06:09:43;142070.41;;;0.78;97.62
14689;BME280;7432;48.728;9.154;2024-01-30T06:12:11;142066.78;;;0.77;98.05
14689;BME280;7432;48.728;9.154;2024-01-30T06:14:38;142063.19;;;0.75;97.89
14689;BME280;7432;48.728;9.154;2024-01-30T06:17:04;142056.00;;;0.72;97.82
14689;BME280;7432;48.728;9.154;2024-01-30T06:19:31;142054.78;;;0.72;97.88
14689;BME280;7432;48.728;9.154;2024-01-30T06:21:58;142070.41;;;0.78;97.67
14689;BME280;7432;48.728;9.154;2024-01-30T06:24:25;142065.59;;;0.76;97.46
14689;BME280;7432;48.728;9.154;2024-01-30T06:26:52;142067.97;;;0.77;98.17
14689;BME280;7432;48.728;9.154;2024-01-30T06:29:19;142054.78;;;0.72;98.33
14689;BME280;7432;48.728;9.154;2024-01-30T06:31:46;142042.78;;;0.67;98.24
14689;BME280;7432;48.728;9.154;2024-01-30T06:34:12;142045.22;;;0.68;98.27
14689;BME280;7432;48.728;9.154;2024-01-30T06:36:39;142044.00;;;0.67;98.84
14689;BME280;7432;48.728;9.154;2024-01-30T06:39:06;142028.38;;;0.60;98.80
14689;BME280;7432;48.728;9.154;2024-01-30T06:41:33;142022.38;;;0.58;98.09
14689;BME280;7432;48.728;9.154;2024-01-30T06:44:01;142033.22;;;0.63;98.75
14689;BME280;7432;48.728;9.154;2024-01-30T06:46:28;142044.00;;;0.67;98.48
14689;BME280;7432;48.728;9.154;2024-01-30T06:48:54;142048.78;;;0.69;99.04
14689;BME280;7432;48.728;9.154;2024-01-30T06:51:20;142052.41;;;0.71;98.66
14689;BME280;7432;48.728;9.154;2024-01-30T06:53:47;142051.19;;;0.70;99.10
14689;BME280;7432;48.728;9.154;2024-01-30T06:56:15;142036.78;;;0.64;99.54
14689;BME280;7432;48.728;9.154;2024-01-30T06:58:46;142073.97;;;0.80;99.11
14689;BME280;7432;48.728;9.154;2024-01-30T07:01:12;142073.97;;;0.80;98.50
14689;BME280;7432;48.728;9.154;2024-01-30T07:03:38;142100.38;;;0.91;98.37
14689;BME280;7432;48.728;9.154;2024-01-30T07:06:05;142099.19;;;0.90;97.46
14689;BME280;7432;48.728;9.154;2024-01-30T07:08:31;142099.19;;;0.90;98.16
14689;BME280;7432;48.728;9.154;2024-01-30T07:10:58;142108.78;;;0.94;98.30
14689;BME280;7432;48.728;9.154;2024-01-30T07:13:25;142119.59;;;0.99;98.75
14689;BME280;7432;48.728;9.154;2024-01-30T07:15:52;142124.41;;;1.01;98.48
14689;BME280;7432;48.728;9.154;2024-01-30T07:18:18;142146.00;;;1.10;97.56
14689;BME280;7432;48.728;9.154;2024-01-30T07:20:45;142144.78;;;1.09;97.18
14689;BME280;7432;48.728;9.154;2024-01-30T07:23:12;142188.03;;;1.28;96.74
14689;BME280;7432;48.728;9.154;2024-01-30T07:25:41;142195.25;;;1.31;96.85
14689;BME280;7432;48.728;9.154;2024-01-30T07:28:07;142225.22;;;1.43;96.05
14689;BME280;7432;48.728;9.154;2024-01-30T07:30:35;142232.44;;;1.46;95.95
14689;BME280;7432;48.728;9.154;2024-01-30T07:33:02;142269.66;;;1.62;96.72
14689;BME280;7432;48.728;9.154;2024-01-30T07:35:28;142291.28;;;1.71;95.35
14689;BME280;7432;48.728;9.154;2024-01-30T07:37:55;142315.31;;;1.81;95.07
14689;BME280;7432;48.728;9.154;2024-01-30T07:40:22;142344.16;;;1.93;95.76
14689;BME280;7432;48.728;9.154;2024-01-30T07:42:49;142369.38;;;2.04;94.38
14689;BME280;7432;48.728;9.154;2024-01-30T07:45:15;142407.81;;;2.20;94.69
14689;BME280;7432;48.728;9.154;2024-01-30T07:47:43;142445.03;;;2.35;93.64
14689;BME280;7432;48.728;9.154;2024-01-30T07:50:10;142483.50;;;2.52;93.88
14689;BME280;7432;48.728;9.154;2024-01-30T07:52:36;142528.00;;;2.70;93.15
14689;BME280;7432;48.728;9.154;2024-01-30T07:55:05;142585.72;;;2.94;92.08
14689;BME280;7432;48.728;9.154;2024-01-30T07:57:33;142649.44;;;3.21;91.48
14689;BME280;7432;48.728;9.154;2024-01-30T07:59:59;142754.09;;;3.65;89.14
14689;BME280;7432;48.728;9.154;2024-01-30T08:02:26;142904.50;;;4.28;87.92
14689;BME280;7432;48.728;9.154;2024-01-30T08:04:53;143088.75;;;5.05;84.72
14689;BME280;7432;48.728;9.154;2024-01-30T08:07:20;143250.19;;;5.73;81.77
14689;BME280;7432;48.728;9.154;2024-01-30T08:09:47;143369.59;;;6.23;79.03
14689;BME280;7432;48.728;9.154;2024-01-30T08:12:14;143492.59;;;6.74;76.50
14689;BME280;7432;48.728;9.154;2024-01-30T08:14:40;143645.81;;;7.38;73.09
14689;BME280;7432;48.728;9.154;2024-01-30T08:17:06;143846.28;;;8.22;69.12
14689;BME280;7432;48.728;9.154;2024-01-30T08:19:33;144094.00;;;9.25;66.48
14689;BME280;7432;48.728;9.154;2024-01-30T08:22:01;144379.44;;;10.44;62.36
14689;BME280;7432;48.728;9.154;2024-01-30T08:24:27;144695.47;;;11.76;58.17
14689;BME280;7432;48.728;9.154;2024-01-30T08:26:54;145040.91;;;13.20;53.39
14689;BME280;7432;48.728;9.154;2024-01-30T08:29:20;145219.22;;;13.94;50.81
14689;BME280;7432;48.728;9.154;2024-01-30T08:31:46;145378.25;;;14.60;48.71
14689;BME280;7432;48.728;9.154;2024-01-30T08:34:13;145653.97;;;15.74;46.25
14689;BME280;7432;48.728;9.154;2024-01-30T08:36:39;145874.03;;;16.66;44.02
14689;BME280;7432;48.728;9.154;2024-01-30T08:39:07;146056.44;;;17.41;42.43
14689;BME280;7432;48.728;9.154;2024-01-30T08:41:33;146235.38;;;18.15;41.33
14689;BME280;7432;48.728;9.154;2024-01-30T08:44:00;146293.81;;;18.40;40.54
14689;BME280;7432;48.728;9.154;2024-01-30T08:46:26;146159.91;;;17.84;40.50
14689;BME280;7432;48.728;9.154;2024-01-30T08:48:53;146004.16;;;17.19;41.50
14689;BME280;7432;48.728;9.154;2024-01-30T08:51:19;145618.78;;;15.60;44.37
14689;BME280;7432;48.728;9.154;2024-01-30T08:53:45;145261.72;;;14.11;47.59
14689;BME280;7432;48.728;9.154;2024-01-30T08:56:13;144920.88;;;12.70;50.62
14689;BME280;7432;48.728;9.154;2024-01-30T08:58:41;144729.41;;;11.90;52.77
14689;BME280;7432;48.728;9.154;2024-01-30T09:01:07;144594.91;;;11.34;54.70
14689;BME280;7432;48.728;9.154;2024-01-30T09:03:34;144476.25;;;10.85;56.87
14689;BME280;7432;48.728;9.154;2024-01-30T09:06:01;144407.28;;;10.56;58.14
14689;BME280;7432;48.728;9.154;2024-01-30T09:08:28;144310.50;;;10.16;59.67
14689;BME280;7432;48.728;9.154;2024-01-30T09:10:54;144251.19;;;9.91;60.71
14689;BME280;7432;48.728;9.154;2024-01-30T09:13:22;144230.63;;;9.82;62.27
14689;BME280;7432;48.728;9.154;2024-01-30T09:15:48;144194.31;;;9.67;61.99
14689;BME280;7432;48.728;9.154;2024-01-30T09:18:15;144165.31;;;9.55;61.20
14689;BME280;7432;48.728;9.154;2024-01-30T09:20:41;144144.78;;;9.46;62.83
14689;BME280;7432;48.728;9.154;2024-01-30T09:23:08;144138.72;;;9.44;62.63
14689;BME280;7432;48.728;9.154;2024-01-30T09:25:33;144098.84;;;9.27;63.90
14689;BME280;7432;48.728;9.154;2024-01-30T09:28:00;144085.53;;;9.22;64.26
14689;BME280;7432;48.728;9.154;2024-01-30T09:30:28;144096.41;;;9.26;65.20
14689;BME280;7432;48.728;9.154;2024-01-30T09:32:54;144096.41;;;9.26;64.73
14689;BME280;7432;48.728;9.154;2024-01-30T09:35:20;144112.13;;;9.33;65.29
14689;BME280;7432;48.728;9.154;2024-01-30T09:37:47;144131.47;;;9.41;65.04
14689;BME280;7432;48.728;9.154;2024-01-30T09:40:14;144147.19;;;9.47;64.40
14689;BME280;7432;48.728;9.154;2024-01-30T09:42:46;144172.59;;;9.58;63.84
14689;BME280;7432;48.728;9.154;2024-01-30T09:45:13;144171.38;;;9.58;63.30
14689;BME280;7432;48.728;9.154;2024-01-30T09:47:42;144177.41;;;9.60;63.91
14689;BME280;7432;48.728;9.154;2024-01-30T09:50:09;144193.16;;;9.67;64.15
14689;BME280;7432;48.728;9.154;2024-01-30T09:52:36;144204.03;;;9.71;63.88
14689;BME280;7432;48.728;9.154;2024-01-30T09:55:05;144225.81;;;9.80;63.84
14689;BME280;7432;48.728;9.154;2024-01-30T09:57:31;144239.09;;;9.86;63.98
14689;BME280;7432;48.728;9.154;2024-01-30T09:59:58;144276.59;;;10.01;62.84
14689;BME280;7432;48.728;9.154;2024-01-30T10:02:24;144299.53;;;10.11;62.55
14689;BME280;7432;48.728;9.154;2024-01-30T10:04:52;144328.66;;;10.23;61.96
14689;BME280;7432;48.728;9.154;2024-01-30T10:07:19;144367.34;;;10.39;60.50
14689;BME280;7432;48.728;9.154;2024-01-30T10:09:46;144389.16;;;10.48;60.79
14689;BME280;7432;48.728;9.154;2024-01-30T10:12:14;144412.13;;;10.58;60.06
14689;BME280;7432;48.728;9.154;2024-01-30T10:14:42;144436.34;;;10.68;59.90
14689;BME280;7432;48.728;9.154;2024-01-30T10:17:09;144467.81;;;10.81;59.47
14689;BME280;7432;48.728;9.154;2024-01-30T10:19:36;144490.78;;;10.91;59.14
14689;BME280;7432;48.728;9.154;2024-01-30T10:22:03;144489.56;;;10.90;58.98
14689;BME280;7432;48.728;9.154;2024-01-30T10:24:30;144517.41;;;11.02;59.01
14689;BME280;7432;48.728;9.154;2024-01-30T10:26:57;144530.72;;;11.07;58.85
14689;BME280;7432;48.728;9.154;2024-01-30T10:29:24;144539.22;;;11.11;58.36
14689;BME280;7432;48.728;9.154;2024-01-30T10:31:58;144553.75;;;11.17;58.59
14689;BME280;7432;48.728;9.154;2024-01-30T10:34:24;144558.59;;;11.19;58.87
14689;BME280;7432;48.728;9.154;2024-01-30T10:36:57;144577.97;;;11.27;58.69
14689;BME280;7432;48.728;9.154;2024-01-30T10:39:28;144592.50;;;11.33;58.87
14689;BME280;7432;48.728;9.154;2024-01-30T10:41:56;144604.59;;;11.38;58.61
14689;BME280;7432;48.728;9.154;2024-01-30T10:44:26;144617.91;;;11.44;57.78
14689;BME280;7432;48.728;9.154;2024-01-30T10:47:00;144613.09;;;11.42;57.69
14689;BME280;7432;48.728;9.154;2024-01-30T10:49:29;144630.03;;;11.49;56.69
14689;BME280;7432;48.728;9.154;2024-01-30T10:51:57;144639.75;;;11.53;57.01
14689;BME280;7432;48.728;9.154;2024-01-30T10:54:25;144662.72;;;11.62;56.58
14689;BME280;7432;48.728;9.154;2024-01-30T10:56:53;144678.53;;;11.69;55.47
14689;BME280;7432;48.728;9.154;2024-01-30T10:59:22;144684.59;;;11.71;55.53
14689;BME280;7432;48.728;9.154;2024-01-30T11:01:50;144689.41;;;11.73;55.51
14689;BME280;7432;48.728;9.154;2024-01-30T11:04:16;144712.41;;;11.83;54.84
14689;BME280;7432;48.728;9.154;2024-01-30T11:06:43;144678.53;;;11.69;55.74
14689;BME280;7432;48.728;9.154;2024-01-30T11:09:11;144702.75;;;11.79;54.97
14689;BME280;7432;48.728;9.154;2024-01-30T11:11:50;144739.06;;;11.94;56.04
14689;BME280;7432;48.728;9.154;2024-01-30T11:14:22;144758.44;;;12.02;55.89
14689;BME280;7432;48.728;9.154;2024-01-30T11:16:49;144765.72;;;12.05;55.10
14689;BME280;7432;48.728;9.154;2024-01-30T11:19:22;144777.88;;;12.10;55.21
14689;BME280;7432;48.728;9.154;2024-01-30T11:21:50;144792.38;;;12.16;54.94
14689;BME280;7432;48.728;9.154;2024-01-30T11:24:19;144799.66;;;12.19;55.19
14689;BME280;7432;48.728;9.154;2024-01-30T11:26:47;144802.09;;;12.20;55.03
14689;BME280;7432;48.728;9.154;2024-01-30T11:29:14;144805.72;;;12.22;54.66
14689;BME280;7432;48.728;9.154;2024-01-30T11:31:52;144800.88;;;12.20;55.79
14689;BME280;7432;48.728;9.154;2024-01-30T11:34:20;144815.41;;;12.26;54.61
14689;BME280;7432;48.728;9.154;2024-01-30T11:36:51;144802.09;;;12.20;54.80
14689;BME280;7432;48.728;9.154;2024-01-30T11:39:19;144812.97;;;12.25;54.37
14689;BME280;7432;48.728;9.154;2024-01-30T11:41:47;144825.09;;;12.30;54.72
14689;BME280;7432;48.728;9.154;2024-01-30T11:44:17;144827.53;;;12.31;54.71
14689;BME280;7432;48.728;9.154;2024-01-30T11:46:43;144851.75;;;12.41;53.29
14689;BME280;7432;48.728;9.154;2024-01-30T11:49:11;144851.75;;;12.41;55.05
14689;BME280;7432;48.728;9.154;2024-01-30T11:51:37;144872.38;;;12.49;54.02
14689;BME280;7432;48.728;9.154;2024-01-30T11:54:04;144880.88;;;12.53;54.23
14689;BME280;7432;48.728;9.154;2024-01-30T11:56:30;144892.97;;;12.58;54.21
14689;BME280;7432;48.728;9.154;2024-01-30T11:58:56;144899.03;;;12.61;54.43
14689;BME280;7432;48.728;9.154;2024-01-30T12:01:25;144901.47;;;12.62;54.30
14689;BME280;7432;48.728;9.154;2024-01-30T12:03:52;144901.47;;;12.62;54.58
14689;BME280;7432;48.728;9.154;2024-01-30T12:06:20;144901.47;;;12.62;54.15
14689;BME280;7432;48.728;9.154;2024-01-30T12:08:56;144906.31;;;12.64;54.60
14689;BME280;7432;48.728;9.154;2024-01-30T12:11:22;144902.69;;;12.62;54.42
14689;BME280;7432;48.728;9.154;2024-01-30T12:13:49;144886.91;;;12.56;54.96
14689;BME280;7432;48.728;9.154;2024-01-30T12:16:16;144880.88;;;12.53;54.92
14689;BME280;7432;48.728;9.154;2024-01-30T12:18:43;144869.97;;;12.48;54.39
14689;BME280;7432;48.728;9.154;2024-01-30T12:21:09;144866.31;;;12.47;54.25
14689;BME280;7432;48.728;9.154;2024-01-30T12:23:37;144869.97;;;12.48;54.20
14689;BME280;7432;48.728;9.154;2024-01-30T12:26:04;144889.34;;;12.57;53.71
14689;BME280;7432;48.728;9.154;2024-01-30T12:28:32;144911.16;;;12.66;53.83
14689;BME280;7432;48.728;9.154;2024-01-30T12:31:01;144890.53;;;12.57;54.11
14689;BME280;7432;48.728;9.154;2024-01-30T12:33:28;144918.41;;;12.69;53.66
14689;BME280;7432;48.728;9.154;2024-01-30T12:35:55;144926.91;;;12.72;52.97
14689;BME280;7432;48.728;9.154;2024-01-30T12:38:21;144931.75;;;12.74;54.44
14689;BME280;7432;48.728;9.154;2024-01-30T12:40:52;144942.66;;;12.79;54.33
14689;BME280;7432;48.728;9.154;2024-01-30T12:43:20;144949.94;;;12.82;53.70
14689;BME280;7432;48.728;9.154;2024-01-30T12:45:47;144946.31;;;12.80;54.45
14689;BME280;7432;48.728;9.154;2024-01-30T12:48:13;144947.53;;;12.81;54.65
14689;BME280;7432;48.728;9.154;2024-01-30T12:50:41;144937.81;;;12.77;54.20
14689;BME280;7432;48.728;9.154;2024-01-30T12:53:07;144945.09;;;12.80;54.05
14689;BME280;7432;48.728;9.154;2024-01-30T12:55:34;144915.97;;;12.68;54.63
14689;BME280;7432;48.728;9.154;2024-01-30T12:58:02;144917.19;;;12.68;54.16
14689;BME280;7432;48.728;9.154;2024-01-30T13:00:28;144897.81;;;12.60;53.50
14689;BME280;7432;48.728;9.154;2024-01-30T13:02:55;144918.41;;;12.69;53.96
14689;BME280;7432;48.728;9.154;2024-01-30T13:05:21;144920.88;;;12.70;52.89